sensor_id;sensor_type;location;lat;lon;timestamp;temperature;humidity
66596;SHT31;59017;49.252;18.838;2022-09-14T00:01:56;21.38;56.73
66596;SHT31;59017;49.252;18.838;2022-09-14T00:04:22;21.38;56.67
66596;SHT31;59017;49.252;18.838;2022-09-14T00:06:47;21.44;56.55
66596;SHT31;59017;49.252;18.838;2022-09-14T00:09:20;21.37;56.70
66596;SHT31;59017;49.252;18.838;2022-09-14T00:11:46;21.42;56.58
66596;SHT31;59017;49.252;18.838;2022-09-14T00:14:12;21.44;56.61
66596;SHT31;59017;49.252;18.838;2022-09-14T00:16:39;21.38;56.65
66596;SHT31;59017;49.252;18.838;2022-09-14T00:19:11;21.37;56.65
66596;SHT31;59017;49.252;18.838;2022-09-14T00:21:38;21.23;57.12
66596;SHT31;59017;49.252;18.838;2022-09-14T00:24:04;21.25;57.38
66596;SHT31;59017;49.252;18.838;2022-09-14T00:26:31;21.32;57.15
66596;SHT31;59017;49.252;18.838;2022-09-14T00:28:58;21.48;56.70
66596;SHT31;59017;49.252;18.838;2022-09-14T00:31:28;21.49;56.85
66596;SHT31;59017;49.252;18.838;2022-09-14T00:33:53;21.54;56.52
66596;SHT31;59017;49.252;18.838;2022-09-14T00:36:22;21.54;56.17
66596;SHT31;59017;49.252;18.838;2022-09-14T00:38:48;21.46;56.33
66596;SHT31;59017;49.252;18.838;2022-09-14T00:41:17;21.58;56.11
66596;SHT31;59017;49.252;18.838;2022-09-14T00:44:04;21.71;55.74
66596;SHT31;59017;49.252;18.838;2022-09-14T00:46:44;21.75;55.44
66596;SHT31;59017;49.252;18.838;2022-09-14T00:49:25;21.71;55.36
66596;SHT31;59017;49.252;18.838;2022-09-14T00:54:18;21.67;55.54
66596;SHT31;59017;49.252;18.838;2022-09-14T00:56:45;21.61;55.65
66596;SHT31;59017;49.252;18.838;2022-09-14T00:59:15;21.72;55.63
66596;SHT31;59017;49.252;18.838;2022-09-14T01:01:41;21.79;55.35
66596;SHT31;59017;49.252;18.838;2022-09-14T01:04:07;21.69;55.48
66596;SHT31;59017;49.252;18.838;2022-09-14T01:06:37;21.41;56.04
66596;SHT31;59017;49.252;18.838;2022-09-14T01:09:33;21.45;56.23
66596;SHT31;59017;49.252;18.838;2022-09-14T01:34:23;21.62;55.74
66596;SHT31;59017;49.252;18.838;2022-09-14T01:36:56;21.66;55.71
66596;SHT31;59017;49.252;18.838;2022-09-14T01:39:23;21.58;55.60
66596;SHT31;59017;49.252;18.838;2022-09-14T01:41:49;21.30;56.39
66596;SHT31;59017;49.252;18.838;2022-09-14T01:44:24;21.23;56.72
66596;SHT31;59017;49.252;18.838;2022-09-14T01:46:54;21.42;56.28
66596;SHT31;59017;49.252;18.838;2022-09-14T01:49:39;21.55;55.97
66596;SHT31;59017;49.252;18.838;2022-09-14T01:52:15;21.51;55.88
66596;SHT31;59017;49.252;18.838;2022-09-14T01:54:46;21.45;56.23
66596;SHT31;59017;49.252;18.838;2022-09-14T01:57:21;21.46;56.34
66596;SHT31;59017;49.252;18.838;2022-09-14T01:59:48;21.42;56.17
66596;SHT31;59017;49.252;18.838;2022-09-14T02:04:53;21.30;56.81
66596;SHT31;59017;49.252;18.838;2022-09-14T02:07:22;21.25;56.92
66596;SHT31;59017;49.252;18.838;2022-09-14T02:09:49;21.27;56.65
66596;SHT31;59017;49.252;18.838;2022-09-14T02:12:15;21.30;56.75
66596;SHT31;59017;49.252;18.838;2022-09-14T02:14:42;21.27;56.88
66596;SHT31;59017;49.252;18.838;2022-09-14T02:17:08;21.30;56.84
66596;SHT31;59017;49.252;18.838;2022-09-14T02:19:39;21.27;57.29
66596;SHT31;59017;49.252;18.838;2022-09-14T02:22:05;21.23;57.13
66596;SHT31;59017;49.252;18.838;2022-09-14T02:24:32;21.31;56.82
66596;SHT31;59017;49.252;18.838;2022-09-14T02:26:58;21.45;56.57
66596;SHT31;59017;49.252;18.838;2022-09-14T02:29:25;21.45;56.55
66596;SHT31;59017;49.252;18.838;2022-09-14T02:40:35;21.35;56.90
66596;SHT31;59017;49.252;18.838;2022-09-14T02:46:15;21.38;56.97
66596;SHT31;59017;49.252;18.838;2022-09-14T02:48:57;21.42;56.82
66596;SHT31;59017;49.252;18.838;2022-09-14T02:51:34;21.38;56.62
66596;SHT31;59017;49.252;18.838;2022-09-14T02:54:39;21.41;56.74
66596;SHT31;59017;49.252;18.838;2022-09-14T02:57:09;21.39;56.94
66596;SHT31;59017;49.252;18.838;2022-09-14T02:59:35;21.42;56.82
66596;SHT31;59017;49.252;18.838;2022-09-14T03:02:00;21.37;56.77
66596;SHT31;59017;49.252;18.838;2022-09-14T03:04:26;21.39;56.36
66596;SHT31;59017;49.252;18.838;2022-09-14T03:06:52;21.41;56.41
66596;SHT31;59017;49.252;18.838;2022-09-14T03:09:18;21.46;56.37
66596;SHT31;59017;49.252;18.838;2022-09-14T03:11:44;21.52;56.21
66596;SHT31;59017;49.252;18.838;2022-09-14T03:14:10;21.48;56.37
66596;SHT31;59017;49.252;18.838;2022-09-14T03:16:37;21.54;56.36
66596;SHT31;59017;49.252;18.838;2022-09-14T03:19:03;21.52;56.57
66596;SHT31;59017;49.252;18.838;2022-09-14T03:21:30;21.46;56.55
66596;SHT31;59017;49.252;18.838;2022-09-14T03:23:55;21.41;56.19
66596;SHT31;59017;49.252;18.838;2022-09-14T03:26:24;21.27;56.38
66596;SHT31;59017;49.252;18.838;2022-09-14T03:28:55;21.14;56.80
66596;SHT31;59017;49.252;18.838;2022-09-14T03:31:21;20.97;57.22
66596;SHT31;59017;49.252;18.838;2022-09-14T03:33:51;21.15;57.14
66596;SHT31;59017;49.252;18.838;2022-09-14T03:36:19;21.20;56.91
66596;SHT31;59017;49.252;18.838;2022-09-14T03:38:47;21.12;57.07
66596;SHT31;59017;49.252;18.838;2022-09-14T03:41:13;21.10;56.82
66596;SHT31;59017;49.252;18.838;2022-09-14T03:43:39;21.03;57.67
66596;SHT31;59017;49.252;18.838;2022-09-14T03:46:11;21.17;57.15
66596;SHT31;59017;49.252;18.838;2022-09-14T03:48:37;20.81;57.81
66596;SHT31;59017;49.252;18.838;2022-09-14T03:51:04;20.73;57.93
66596;SHT31;59017;49.252;18.838;2022-09-14T03:53:30;20.91;57.78
66596;SHT31;59017;49.252;18.838;2022-09-14T03:55:56;21.01;57.18
66596;SHT31;59017;49.252;18.838;2022-09-14T03:58:22;21.04;57.28
66596;SHT31;59017;49.252;18.838;2022-09-14T04:00:48;20.89;57.54
66596;SHT31;59017;49.252;18.838;2022-09-14T04:03:13;20.33;59.05
66596;SHT31;59017;49.252;18.838;2022-09-14T04:05:39;20.38;59.12
66596;SHT31;59017;49.252;18.838;2022-09-14T04:08:04;20.24;59.41
66596;SHT31;59017;49.252;18.838;2022-09-14T04:10:30;20.36;59.19
66596;SHT31;59017;49.252;18.838;2022-09-14T04:12:56;20.43;58.90
66596;SHT31;59017;49.252;18.838;2022-09-14T04:15:22;20.42;58.81
66596;SHT31;59017;49.252;18.838;2022-09-14T04:17:48;20.42;59.00
66596;SHT31;59017;49.252;18.838;2022-09-14T04:20:13;20.43;58.86
66596;SHT31;59017;49.252;18.838;2022-09-14T04:22:39;20.36;59.11
66596;SHT31;59017;49.252;18.838;2022-09-14T04:25:05;20.36;58.97
66596;SHT31;59017;49.252;18.838;2022-09-14T04:27:30;20.21;59.33
66596;SHT31;59017;49.252;18.838;2022-09-14T04:29:56;20.18;59.41
66596;SHT31;59017;49.252;18.838;2022-09-14T04:32:21;20.22;59.36
66596;SHT31;59017;49.252;18.838;2022-09-14T04:34:48;20.49;58.88
66596;SHT31;59017;49.252;18.838;2022-09-14T04:37:13;20.52;58.63
66596;SHT31;59017;49.252;18.838;2022-09-14T04:39:39;20.57;58.59
66596;SHT31;59017;49.252;18.838;2022-09-14T04:42:05;20.66;58.24
66596;SHT31;59017;49.252;18.838;2022-09-14T04:44:30;20.79;58.01
66596;SHT31;59017;49.252;18.838;2022-09-14T04:46:56;20.87;57.64
66596;SHT31;59017;49.252;18.838;2022-09-14T04:49:21;20.91;57.88
66596;SHT31;59017;49.252;18.838;2022-09-14T04:51:47;20.84;57.83
66596;SHT31;59017;49.252;18.838;2022-09-14T04:54:15;20.83;57.94
66596;SHT31;59017;49.252;18.838;2022-09-14T04:56:41;20.81;57.99
66596;SHT31;59017;49.252;18.838;2022-09-14T04:59:07;20.86;57.89
66596;SHT31;59017;49.252;18.838;2022-09-14T05:01:35;21.01;57.51
66596;SHT31;59017;49.252;18.838;2022-09-14T05:04:02;21.06;57.28
66596;SHT31;59017;49.252;18.838;2022-09-14T05:06:31;20.97;57.41
66596;SHT31;59017;49.252;18.838;2022-09-14T05:08:58;20.93;57.67
66596;SHT31;59017;49.252;18.838;2022-09-14T05:11:26;20.89;57.68
66596;SHT31;59017;49.252;18.838;2022-09-14T05:13:54;21.00;57.45
66596;SHT31;59017;49.252;18.838;2022-09-14T05:16:30;21.07;57.11
66596;SHT31;59017;49.252;18.838;2022-09-14T05:18:58;21.10;57.10
66596;SHT31;59017;49.252;18.838;2022-09-14T05:21:27;21.17;56.86
66596;SHT31;59017;49.252;18.838;2022-09-14T05:23:58;21.25;56.77
66596;SHT31;59017;49.252;18.838;2022-09-14T05:26:25;21.27;56.58
66596;SHT31;59017;49.252;18.838;2022-09-14T05:28:52;21.27;56.66
66596;SHT31;59017;49.252;18.838;2022-09-14T05:31:18;21.25;56.67
66596;SHT31;59017;49.252;18.838;2022-09-14T05:33:44;21.20;56.52
66596;SHT31;59017;49.252;18.838;2022-09-14T05:36:10;21.24;56.52
66596;SHT31;59017;49.252;18.838;2022-09-14T05:38:37;21.17;56.58
66596;SHT31;59017;49.252;18.838;2022-09-14T05:41:05;21.06;57.13
66596;SHT31;59017;49.252;18.838;2022-09-14T05:43:30;21.10;57.08
66596;SHT31;59017;49.252;18.838;2022-09-14T05:46:00;21.06;57.20
66596;SHT31;59017;49.252;18.838;2022-09-14T05:48:29;21.14;56.88
66596;SHT31;59017;49.252;18.838;2022-09-14T05:50:58;21.20;56.65
66596;SHT31;59017;49.252;18.838;2022-09-14T05:53:25;21.18;56.68
66596;SHT31;59017;49.252;18.838;2022-09-14T05:56:01;21.24;56.63
66596;SHT31;59017;49.252;18.838;2022-09-14T05:58:27;21.21;56.64
66596;SHT31;59017;49.252;18.838;2022-09-14T06:00:52;21.24;56.61
66596;SHT31;59017;49.252;18.838;2022-09-14T06:03:18;21.28;56.60
66596;SHT31;59017;49.252;18.838;2022-09-14T06:05:43;21.23;56.65
66596;SHT31;59017;49.252;18.838;2022-09-14T06:08:09;21.30;56.45
66596;SHT31;59017;49.252;18.838;2022-09-14T06:10:34;21.32;56.39
66596;SHT31;59017;49.252;18.838;2022-09-14T06:13:00;21.18;56.69
66596;SHT31;59017;49.252;18.838;2022-09-14T06:15:25;21.18;56.75
66596;SHT31;59017;49.252;18.838;2022-09-14T06:17:50;21.27;56.59
66596;SHT31;59017;49.252;18.838;2022-09-14T06:20:16;21.28;56.52
66596;SHT31;59017;49.252;18.838;2022-09-14T06:22:43;21.28;56.48
66596;SHT31;59017;49.252;18.838;2022-09-14T06:25:08;21.32;56.35
66596;SHT31;59017;49.252;18.838;2022-09-14T06:27:36;21.37;56.30
66596;SHT31;59017;49.252;18.838;2022-09-14T06:30:02;21.39;56.15
66596;SHT31;59017;49.252;18.838;2022-09-14T06:32:30;21.27;56.42
66596;SHT31;59017;49.252;18.838;2022-09-14T06:34:56;20.93;57.63
66596;SHT31;59017;49.252;18.838;2022-09-14T06:37:21;21.04;57.48
66596;SHT31;59017;49.252;18.838;2022-09-14T06:39:47;20.81;57.82
66596;SHT31;59017;49.252;18.838;2022-09-14T06:42:12;20.90;57.66
66596;SHT31;59017;49.252;18.838;2022-09-14T06:44:38;20.83;57.62
66596;SHT31;59017;49.252;18.838;2022-09-14T06:47:04;20.80;57.99
66596;SHT31;59017;49.252;18.838;2022-09-14T06:49:30;20.65;58.26
66596;SHT31;59017;49.252;18.838;2022-09-14T06:51:55;20.76;58.20
66596;SHT31;59017;49.252;18.838;2022-09-14T06:54:22;21.01;57.34
66596;SHT31;59017;49.252;18.838;2022-09-14T06:56:47;21.12;57.02
66596;SHT31;59017;49.252;18.838;2022-09-14T06:59:15;21.21;56.96
66596;SHT31;59017;49.252;18.838;2022-09-14T07:01:41;20.94;58.15
66596;SHT31;59017;49.252;18.838;2022-09-14T07:04:07;21.14;57.26
66596;SHT31;59017;49.252;18.838;2022-09-14T07:06:45;21.18;57.21
66596;SHT31;59017;49.252;18.838;2022-09-14T07:09:11;21.25;57.16
66596;SHT31;59017;49.252;18.838;2022-09-14T07:11:37;21.30;57.07
66596;SHT31;59017;49.252;18.838;2022-09-14T07:14:03;21.31;57.06
66596;SHT31;59017;49.252;18.838;2022-09-14T07:16:31;21.32;56.92
66596;SHT31;59017;49.252;18.838;2022-09-14T07:18:59;21.37;57.14
66596;SHT31;59017;49.252;18.838;2022-09-14T07:21:26;21.35;57.11
66596;SHT31;59017;49.252;18.838;2022-09-14T07:23:52;21.32;57.26
66596;SHT31;59017;49.252;18.838;2022-09-14T07:26:27;21.34;57.11
66596;SHT31;59017;49.252;18.838;2022-09-14T07:28:59;21.34;56.91
66596;SHT31;59017;49.252;18.838;2022-09-14T07:31:25;21.37;57.04
66596;SHT31;59017;49.252;18.838;2022-09-14T07:33:53;21.37;57.02
66596;SHT31;59017;49.252;18.838;2022-09-14T07:36:19;21.39;57.04
66596;SHT31;59017;49.252;18.838;2022-09-14T07:38:45;21.31;57.29
66596;SHT31;59017;49.252;18.838;2022-09-14T07:41:10;21.42;57.14
66596;SHT31;59017;49.252;18.838;2022-09-14T07:43:36;21.44;56.90
66596;SHT31;59017;49.252;18.838;2022-09-14T07:46:03;21.51;56.70
66596;SHT31;59017;49.252;18.838;2022-09-14T07:48:33;21.51;56.97
66596;SHT31;59017;49.252;18.838;2022-09-14T07:51:07;21.55;57.10
66596;SHT31;59017;49.252;18.838;2022-09-14T07:53:35;21.55;56.93
66596;SHT31;59017;49.252;18.838;2022-09-14T07:56:05;21.54;57.27
66596;SHT31;59017;49.252;18.838;2022-09-14T07:58:32;21.59;56.74
66596;SHT31;59017;49.252;18.838;2022-09-14T08:00:59;21.58;56.64
66596;SHT31;59017;49.252;18.838;2022-09-14T08:03:25;21.59;56.64
66596;SHT31;59017;49.252;18.838;2022-09-14T08:06:01;21.55;57.14
66596;SHT31;59017;49.252;18.838;2022-09-14T08:08:33;21.58;57.19
66596;SHT31;59017;49.252;18.838;2022-09-14T08:11:08;21.58;56.90
66596;SHT31;59017;49.252;18.838;2022-09-14T08:13:36;21.63;56.74
66596;SHT31;59017;49.252;18.838;2022-09-14T08:16:02;21.56;56.86
66596;SHT31;59017;49.252;18.838;2022-09-14T08:18:30;21.62;56.79
66596;SHT31;59017;49.252;18.838;2022-09-14T08:20:56;21.55;57.08
66596;SHT31;59017;49.252;18.838;2022-09-14T08:23:22;21.58;57.25
66596;SHT31;59017;49.252;18.838;2022-09-14T08:25:48;21.51;57.41
66596;SHT31;59017;49.252;18.838;2022-09-14T08:28:13;21.49;57.71
66596;SHT31;59017;49.252;18.838;2022-09-14T08:30:39;21.46;57.67
66596;SHT31;59017;49.252;18.838;2022-09-14T08:33:05;21.49;57.87
66596;SHT31;59017;49.252;18.838;2022-09-14T08:35:31;21.51;57.94
66596;SHT31;59017;49.252;18.838;2022-09-14T08:37:56;21.54;57.95
66596;SHT31;59017;49.252;18.838;2022-09-14T08:40:22;21.59;57.76
66596;SHT31;59017;49.252;18.838;2022-09-14T08:42:48;21.59;57.69
66596;SHT31;59017;49.252;18.838;2022-09-14T08:45:15;21.62;57.58
66596;SHT31;59017;49.252;18.838;2022-09-14T08:47:41;21.63;57.78
66596;SHT31;59017;49.252;18.838;2022-09-14T08:50:13;21.63;57.91
66596;SHT31;59017;49.252;18.838;2022-09-14T08:52:43;21.67;58.02
66596;SHT31;59017;49.252;18.838;2022-09-14T08:55:31;21.56;58.22
66596;SHT31;59017;49.252;18.838;2022-09-14T08:58:13;21.56;57.86
66596;SHT31;59017;49.252;18.838;2022-09-14T09:00:50;21.67;57.92
66596;SHT31;59017;49.252;18.838;2022-09-14T09:06:09;21.58;58.55
66596;SHT31;59017;49.252;18.838;2022-09-14T09:11:20;21.44;58.96
66596;SHT31;59017;49.252;18.838;2022-09-14T09:13:48;21.39;58.89
66596;SHT31;59017;49.252;18.838;2022-09-14T09:16:18;21.45;58.88
66596;SHT31;59017;49.252;18.838;2022-09-14T09:18:53;21.51;58.55
66596;SHT31;59017;49.252;18.838;2022-09-14T09:21:30;21.52;58.44
66596;SHT31;59017;49.252;18.838;2022-09-14T09:24:25;21.56;58.29
66596;SHT31;59017;49.252;18.838;2022-09-14T09:26:51;21.59;58.37
66596;SHT31;59017;49.252;18.838;2022-09-14T09:29:17;21.52;58.73
66596;SHT31;59017;49.252;18.838;2022-09-14T09:31:47;21.51;58.93
66596;SHT31;59017;49.252;18.838;2022-09-14T09:34:14;21.55;58.93
66596;SHT31;59017;49.252;18.838;2022-09-14T09:36:44;21.56;58.86
66596;SHT31;59017;49.252;18.838;2022-09-14T09:39:11;21.46;59.51
66596;SHT31;59017;49.252;18.838;2022-09-14T09:44:11;21.48;59.20
66596;SHT31;59017;49.252;18.838;2022-09-14T09:46:43;21.49;59.39
66596;SHT31;59017;49.252;18.838;2022-09-14T09:49:22;21.38;59.63
66596;SHT31;59017;49.252;18.838;2022-09-14T09:51:49;21.32;59.85
66596;SHT31;59017;49.252;18.838;2022-09-14T09:57:02;21.11;60.62
66596;SHT31;59017;49.252;18.838;2022-09-14T09:59:36;20.89;61.38
66596;SHT31;59017;49.252;18.838;2022-09-14T10:02:28;20.98;61.18
66596;SHT31;59017;49.252;18.838;2022-09-14T10:07:22;21.10;60.55
66596;SHT31;59017;49.252;18.838;2022-09-14T10:10:04;21.15;60.47
66596;SHT31;59017;49.252;18.838;2022-09-14T10:12:30;21.21;60.28
66596;SHT31;59017;49.252;18.838;2022-09-14T10:17:31;21.31;60.01
66596;SHT31;59017;49.252;18.838;2022-09-14T10:19:57;21.31;60.21
66596;SHT31;59017;49.252;18.838;2022-09-14T10:22:28;21.15;60.51
66596;SHT31;59017;49.252;18.838;2022-09-14T10:27:43;21.38;59.70
66596;SHT31;59017;49.252;18.838;2022-09-14T10:30:18;21.39;59.93
66596;SHT31;59017;49.252;18.838;2022-09-14T10:33:04;21.39;59.93
66596;SHT31;59017;49.252;18.838;2022-09-14T10:38:31;21.54;60.00
66596;SHT31;59017;49.252;18.838;2022-09-14T10:41:08;21.55;60.36
66596;SHT31;59017;49.252;18.838;2022-09-14T10:46:20;21.48;60.22
66596;SHT31;59017;49.252;18.838;2022-09-14T11:00:06;21.45;61.05
66596;SHT31;59017;49.252;18.838;2022-09-14T11:08:31;21.51;60.87
66596;SHT31;59017;49.252;18.838;2022-09-14T11:16:55;21.44;61.44
66596;SHT31;59017;49.252;18.838;2022-09-14T11:25:16;21.48;61.36
66596;SHT31;59017;49.252;18.838;2022-09-14T11:28:07;21.55;61.35
66596;SHT31;59017;49.252;18.838;2022-09-14T11:31:25;21.59;61.12
66596;SHT31;59017;49.252;18.838;2022-09-14T11:36:40;21.56;61.07
66596;SHT31;59017;49.252;18.838;2022-09-14T11:39:29;21.41;61.55
66596;SHT31;59017;49.252;18.838;2022-09-14T11:42:05;21.42;61.62
66596;SHT31;59017;49.252;18.838;2022-09-14T11:44:41;21.44;61.65
66596;SHT31;59017;49.252;18.838;2022-09-14T11:47:19;21.34;62.17
66596;SHT31;59017;49.252;18.838;2022-09-14T11:50:02;21.35;62.39
66596;SHT31;59017;49.252;18.838;2022-09-14T11:52:32;21.27;62.55
66596;SHT31;59017;49.252;18.838;2022-09-14T11:54:59;21.25;62.78
66596;SHT31;59017;49.252;18.838;2022-09-14T11:57:27;21.20;63.73
66596;SHT31;59017;49.252;18.838;2022-09-14T11:59:59;21.31;63.15
66596;SHT31;59017;49.252;18.838;2022-09-14T12:12:44;21.31;63.28
66596;SHT31;59017;49.252;18.838;2022-09-14T12:15:32;21.38;63.09
66596;SHT31;59017;49.252;18.838;2022-09-14T12:28:48;21.38;62.91
66596;SHT31;59017;49.252;18.838;2022-09-14T12:42:28;21.35;63.50
66596;SHT31;59017;49.252;18.838;2022-09-14T12:44:55;21.37;63.48
66596;SHT31;59017;49.252;18.838;2022-09-14T12:49:57;21.14;64.35
66596;SHT31;59017;49.252;18.838;2022-09-14T12:52:44;21.21;63.65
66596;SHT31;59017;49.252;18.838;2022-09-14T13:06:11;21.01;63.92
66596;SHT31;59017;49.252;18.838;2022-09-14T13:08:37;21.12;63.68
66596;SHT31;59017;49.252;18.838;2022-09-14T13:11:05;21.01;63.91
66596;SHT31;59017;49.252;18.838;2022-09-14T13:13:32;21.03;63.89
66596;SHT31;59017;49.252;18.838;2022-09-14T13:16:00;21.04;63.78
66596;SHT31;59017;49.252;18.838;2022-09-14T13:18:32;21.08;63.40
66596;SHT31;59017;49.252;18.838;2022-09-14T13:21:01;21.20;63.20
66596;SHT31;59017;49.252;18.838;2022-09-14T13:23:36;21.24;62.90
66596;SHT31;59017;49.252;18.838;2022-09-14T13:28:42;21.20;63.11
66596;SHT31;59017;49.252;18.838;2022-09-14T13:31:12;21.27;62.70
66596;SHT31;59017;49.252;18.838;2022-09-14T13:33:42;21.21;62.93
66596;SHT31;59017;49.252;18.838;2022-09-14T13:36:16;21.14;63.08
66596;SHT31;59017;49.252;18.838;2022-09-14T13:38:42;20.94;63.68
66596;SHT31;59017;49.252;18.838;2022-09-14T13:41:12;21.00;63.63
66596;SHT31;59017;49.252;18.838;2022-09-14T13:43:40;21.14;63.31
66596;SHT31;59017;49.252;18.838;2022-09-14T13:46:06;21.08;62.90
66596;SHT31;59017;49.252;18.838;2022-09-14T13:48:37;21.08;63.15
66596;SHT31;59017;49.252;18.838;2022-09-14T13:51:05;20.98;63.57
66596;SHT31;59017;49.252;18.838;2022-09-14T13:58:46;21.06;63.43
66596;SHT31;59017;49.252;18.838;2022-09-14T14:01:12;21.03;63.76
66596;SHT31;59017;49.252;18.838;2022-09-14T14:03:40;20.97;64.05
66596;SHT31;59017;49.252;18.838;2022-09-14T14:08:41;20.86;64.88
66596;SHT31;59017;49.252;18.838;2022-09-14T14:11:07;20.81;65.25
66596;SHT31;59017;49.252;18.838;2022-09-14T14:13:35;20.93;64.62
66596;SHT31;59017;49.252;18.838;2022-09-14T14:16:22;21.10;64.30
66596;SHT31;59017;49.252;18.838;2022-09-14T14:18:53;21.08;63.87
66596;SHT31;59017;49.252;18.838;2022-09-14T14:23:53;20.94;64.52
66596;SHT31;59017;49.252;18.838;2022-09-14T14:26:47;21.04;64.07
66596;SHT31;59017;49.252;18.838;2022-09-14T14:29:13;21.04;64.01
66596;SHT31;59017;49.252;18.838;2022-09-14T14:31:40;21.12;64.02
66596;SHT31;59017;49.252;18.838;2022-09-14T14:34:26;21.15;63.60
66596;SHT31;59017;49.252;18.838;2022-09-14T14:36:53;21.18;63.39
66596;SHT31;59017;49.252;18.838;2022-09-14T14:39:23;21.20;63.16
66596;SHT31;59017;49.252;18.838;2022-09-14T14:41:49;21.17;63.41
66596;SHT31;59017;49.252;18.838;2022-09-14T14:44:23;21.12;63.67
66596;SHT31;59017;49.252;18.838;2022-09-14T14:46:49;21.06;64.06
66596;SHT31;59017;49.252;18.838;2022-09-14T14:49:17;21.11;63.90
66596;SHT31;59017;49.252;18.838;2022-09-14T14:51:45;21.14;63.79
66596;SHT31;59017;49.252;18.838;2022-09-14T14:54:11;21.24;62.94
66596;SHT31;59017;49.252;18.838;2022-09-14T14:56:37;21.30;62.54
66596;SHT31;59017;49.252;18.838;2022-09-14T14:59:14;21.45;62.03
66596;SHT31;59017;49.252;18.838;2022-09-14T15:01:40;21.52;61.90
66596;SHT31;59017;49.252;18.838;2022-09-14T15:04:06;21.58;61.70
66596;SHT31;59017;49.252;18.838;2022-09-14T15:06:31;21.56;62.40
66596;SHT31;59017;49.252;18.838;2022-09-14T15:08:57;21.62;62.10
66596;SHT31;59017;49.252;18.838;2022-09-14T15:11:23;21.42;62.94
66596;SHT31;59017;49.252;18.838;2022-09-14T15:13:48;21.59;61.90
66596;SHT31;59017;49.252;18.838;2022-09-14T15:16:15;21.69;61.77
66596;SHT31;59017;49.252;18.838;2022-09-14T15:18:40;21.71;62.00
66596;SHT31;59017;49.252;18.838;2022-09-14T15:21:06;21.52;62.63
66596;SHT31;59017;49.252;18.838;2022-09-14T15:23:32;21.59;62.23
66596;SHT31;59017;49.252;18.838;2022-09-14T15:25:58;21.69;61.89
66596;SHT31;59017;49.252;18.838;2022-09-14T15:31:00;21.72;62.22
66596;SHT31;59017;49.252;18.838;2022-09-14T15:33:26;21.79;61.81
66596;SHT31;59017;49.252;18.838;2022-09-14T15:35:55;21.82;61.87
66596;SHT31;59017;49.252;18.838;2022-09-14T15:38:21;21.65;62.68
66596;SHT31;59017;49.252;18.838;2022-09-14T15:40:47;21.75;62.14
66596;SHT31;59017;49.252;18.838;2022-09-14T15:43:12;21.78;62.23
66596;SHT31;59017;49.252;18.838;2022-09-14T15:45:38;21.46;63.33
66596;SHT31;59017;49.252;18.838;2022-09-14T15:48:03;21.46;63.14
66596;SHT31;59017;49.252;18.838;2022-09-14T15:50:29;21.71;62.22
66596;SHT31;59017;49.252;18.838;2022-09-14T15:52:54;21.73;62.42
66596;SHT31;59017;49.252;18.838;2022-09-14T15:55:20;21.83;62.02
66596;SHT31;59017;49.252;18.838;2022-09-14T15:57:45;21.63;62.64
66596;SHT31;59017;49.252;18.838;2022-09-14T16:00:11;21.73;62.22
66596;SHT31;59017;49.252;18.838;2022-09-14T16:02:38;21.81;62.33
66596;SHT31;59017;49.252;18.838;2022-09-14T16:05:04;21.78;62.10
66596;SHT31;59017;49.252;18.838;2022-09-14T16:07:29;21.85;61.64
66596;SHT31;59017;49.252;18.838;2022-09-14T16:09:55;21.88;61.69
66596;SHT31;59017;49.252;18.838;2022-09-14T16:12:20;21.69;62.46
66596;SHT31;59017;49.252;18.838;2022-09-14T16:14:46;21.42;63.53
66596;SHT31;59017;49.252;18.838;2022-09-14T16:17:11;21.62;62.43
66596;SHT31;59017;49.252;18.838;2022-09-14T16:19:37;21.69;62.25
66596;SHT31;59017;49.252;18.838;2022-09-14T16:22:03;21.49;62.98
66596;SHT31;59017;49.252;18.838;2022-09-14T16:24:29;21.38;63.47
66596;SHT31;59017;49.252;18.838;2022-09-14T16:26:56;21.35;63.52
66596;SHT31;59017;49.252;18.838;2022-09-14T16:29:22;21.28;63.83
66596;SHT31;59017;49.252;18.838;2022-09-14T16:31:49;21.39;63.50
66596;SHT31;59017;49.252;18.838;2022-09-14T16:34:30;21.31;63.74
66596;SHT31;59017;49.252;18.838;2022-09-14T16:36:56;21.28;63.49
66596;SHT31;59017;49.252;18.838;2022-09-14T16:39:26;21.18;64.09
66596;SHT31;59017;49.252;18.838;2022-09-14T16:41:52;21.24;63.65
66596;SHT31;59017;49.252;18.838;2022-09-14T16:44:24;21.21;64.07
66596;SHT31;59017;49.252;18.838;2022-09-14T16:46:51;21.10;64.43
66596;SHT31;59017;49.252;18.838;2022-09-14T16:49:18;21.24;63.76
66596;SHT31;59017;49.252;18.838;2022-09-14T16:51:44;21.30;63.73
66596;SHT31;59017;49.252;18.838;2022-09-14T16:54:14;21.14;64.32
66596;SHT31;59017;49.252;18.838;2022-09-14T16:56:40;21.24;64.01
66596;SHT31;59017;49.252;18.838;2022-09-14T16:59:06;21.41;63.43
66596;SHT31;59017;49.252;18.838;2022-09-14T17:01:39;20.93;65.16
66596;SHT31;59017;49.252;18.838;2022-09-14T17:04:07;21.15;64.10
66596;SHT31;59017;49.252;18.838;2022-09-14T17:06:39;21.31;63.87
66596;SHT31;59017;49.252;18.838;2022-09-14T17:09:14;21.44;63.00
66596;SHT31;59017;49.252;18.838;2022-09-14T17:11:41;21.35;63.62
66596;SHT31;59017;49.252;18.838;2022-09-14T17:14:09;21.34;63.67
66596;SHT31;59017;49.252;18.838;2022-09-14T17:16:37;21.25;64.05
66596;SHT31;59017;49.252;18.838;2022-09-14T17:19:03;21.34;63.41
66596;SHT31;59017;49.252;18.838;2022-09-14T17:21:31;21.34;63.91
66596;SHT31;59017;49.252;18.838;2022-09-14T17:23:57;21.20;64.36
66596;SHT31;59017;49.252;18.838;2022-09-14T17:26:23;21.25;64.24
66596;SHT31;59017;49.252;18.838;2022-09-14T17:28:50;21.25;64.09
66596;SHT31;59017;49.252;18.838;2022-09-14T17:31:18;21.27;64.02
66596;SHT31;59017;49.252;18.838;2022-09-14T17:33:45;21.21;64.46
66596;SHT31;59017;49.252;18.838;2022-09-14T17:36:12;21.17;64.72
66596;SHT31;59017;49.252;18.838;2022-09-14T17:38:39;21.11;64.88
66596;SHT31;59017;49.252;18.838;2022-09-14T17:41:14;21.08;64.83
66596;SHT31;59017;49.252;18.838;2022-09-14T17:43:40;21.37;63.85
66596;SHT31;59017;49.252;18.838;2022-09-14T17:46:09;21.24;64.66
66596;SHT31;59017;49.252;18.838;2022-09-14T17:48:36;21.30;64.02
66596;SHT31;59017;49.252;18.838;2022-09-14T17:51:07;21.08;65.13
66596;SHT31;59017;49.252;18.838;2022-09-14T17:53:38;21.10;64.81
66596;SHT31;59017;49.252;18.838;2022-09-14T17:56:09;21.23;64.36
66596;SHT31;59017;49.252;18.838;2022-09-14T17:58:35;21.23;64.62
66596;SHT31;59017;49.252;18.838;2022-09-14T18:03:37;21.15;64.72
66596;SHT31;59017;49.252;18.838;2022-09-14T18:06:05;21.14;64.71